Main page
METAR-TAF:

METAR-TAF

Airports :

Hamadan International Airport

Hamedan, Iran

latitude: 34-52-05N, longitude: 048-33-08E, elevation: 1757 m

Current weather observation

The report was made 12 hours and 29 minutes ago, at 13:00 UTC
Wind 6 kt from the Northwest
Temperature 1°C
Humidity 100%
Pressure 1021 hPa
Visibility: 3000 m
Few clouds at a height of 3500 ft, Cumulonimbus.
Scattered clouds at a height of 4000 ft
Overcast at a height of 9000 ft
mist

METAR: OIHH 171300Z 31006KT 3000 BR FEW035CB SCT040 OVC090 01/01 Q1021

Time: 04:59 (01:29 UTC)


TAF: missing

Weather observations and forecasts of more than 4000 airports (METAR and TAF reports).

The available stations are represented by yellow and red dots on the map.

Hover mouse over dot to see the name of the station.

Then click to see weather observations and forecasts.

To change the map : click on the green buttons with a black cross to zoom in, on the green button with a dash to zoom out, or on the green arrows for adjacent maps.


METAR-TAF: